Time;durP1;ratioP1;P1;durP2;ratioP2;P2;SDS_P1;SDS_P2;PMS_P1;PMS_P2;Temp;Humidity;BMP_temperature;BMP_pressure;BME280_temperature;BME280_humidity;BME280_pressure;Samples;Min_cycle;Max_cycle;Signal;HPM_P1;HPM_P2
2023/08/13 00:02:22;;;;;;;25.92;15.32;;;17.00;99.90;;;;;;4993491;28;20037;-50
2023/08/13 00:04:48;;;;;;;30.20;16.35;;;17.00;99.90;;;;;;5010719;28;20029;-48
2023/08/13 00:07:13;;;;;;;17.67;12.07;;;16.90;99.90;;;;;;4993413;28;20032;-47
2023/08/13 00:09:42;;;;;;;25.30;14.57;;;16.90;99.90;;;;;;5011442;28;20029;-47
2023/08/13 00:12:07;;;;;;;24.42;15.52;;;16.90;99.90;;;;;;5011660;28;20030;-47
2023/08/13 00:14:33;;;;;;;27.20;14.60;;;16.90;99.90;;;;;;5010564;28;20116;-47
2023/08/13 00:16:58;;;;;;;16.90;11.70;;;16.90;99.90;;;;;;5010887;28;20057;-47
2023/08/13 00:19:24;;;;;;;18.13;12.52;;;16.90;99.90;;;;;;5010929;28;20033;-49
2023/08/13 00:21:50;;;;;;;18.92;12.88;;;16.90;99.90;;;;;;5010780;28;20038;-47
2023/08/13 00:24:15;;;;;;;18.00;12.85;;;16.90;99.90;;;;;;5010313;28;20022;-48
2023/08/13 00:26:42;;;;;;;22.52;12.57;;;16.90;99.90;;;;;;4993241;28;20018;-48
2023/08/13 00:29:08;;;;;;;20.52;13.32;;;16.90;99.90;;;;;;5010900;28;20025;-50
2023/08/13 00:31:33;;;;;;;19.35;12.85;;;16.80;99.90;;;;;;4993403;28;20052;-48
2023/08/13 00:33:59;;;;;;;15.27;10.88;;;16.90;99.90;;;;;;5010333;28;20378;-47
2023/08/13 00:36:25;;;;;;;14.48;10.27;;;16.90;99.90;;;;;;5010543;28;20369;-46
2023/08/13 00:38:50;;;;;;;26.60;14.43;;;16.80;99.90;;;;;;5010872;28;20029;-47
2023/08/13 00:41:16;;;;;;;19.42;11.85;;;16.80;99.90;;;;;;4992898;28;20385;-48
2023/08/13 00:43:41;;;;;;;27.60;14.25;;;16.80;99.90;;;;;;5010347;28;20026;-47
2023/08/13 00:46:07;;;;;;;28.05;14.48;;;16.80;99.90;;;;;;5010312;28;20112;-46
2023/08/13 00:48:33;;;;;;;31.45;14.98;;;16.70;99.90;;;;;;5010897;28;20076;-48
2023/08/13 00:50:59;;;;;;;25.08;14.80;;;16.70;99.90;;;;;;4992995;28;20075;-48
2023/08/13 00:53:25;;;;;;;21.27;12.95;;;16.60;99.90;;;;;;5010381;28;20022;-49
2023/08/13 00:55:51;;;;;;;27.60;15.15;;;16.60;99.90;;;;;;5010234;28;20040;-46
2023/08/13 00:58:17;;;;;;;20.67;12.88;;;16.60;99.90;;;;;;5010348;28;20436;-50
2023/08/13 01:00:43;;;;;;;20.48;12.70;;;16.60;99.90;;;;;;5010428;28;20025;-48
2023/08/13 01:03:08;;;;;;;16.52;11.45;;;16.60;99.90;;;;;;4992617;28;20378;-48
2023/08/13 01:05:43;;;;;;;22.33;12.63;;;16.60;99.90;;;;;;5009871;28;20021;-50
2023/08/13 01:08:45;;;;;;;20.13;12.68;;;16.60;99.90;;;;;;5010392;28;20048;-47
2023/08/13 01:11:23;;;;;;;27.45;14.15;;;16.60;99.90;;;;;;4969051;28;20046;-48
2023/08/13 01:14:17;;;;;;;22.98;13.63;;;16.50;99.90;;;;;;5010045;28;20520;-50
2023/08/13 01:16:43;;;;;;;27.95;14.50;;;16.50;99.90;;;;;;5009801;28;20122;-46
2023/08/13 01:19:12;;;;;;;22.75;14.45;;;16.50;99.90;;;;;;5010512;28;20397;-48
2023/08/13 01:21:38;;;;;;;29.50;15.65;;;16.50;99.90;;;;;;5010306;28;20054;-50
2023/08/13 01:24:04;;;;;;;25.42;15.00;;;16.50;99.90;;;;;;5009604;28;20046;-47
2023/08/13 01:26:37;;;;;;;30.70;15.07;;;16.40;99.90;;;;;;5010238;28;20252;-49
2023/08/13 01:29:17;;;;;;;23.85;16.02;;;16.50;99.90;;;;;;5010555;28;20144;-47
2023/08/13 01:31:48;;;;;;;25.90;15.27;;;16.40;99.90;;;;;;5010128;28;20040;-49
2023/08/13 01:34:15;;;;;;;33.13;16.77;;;16.40;99.90;;;;;;5011517;28;20554;-46
2023/08/13 01:36:42;;;;;;;26.05;13.02;;;16.40;99.90;;;;;;5016056;28;20179;-47
2023/08/13 01:39:08;;;;;;;31.75;15.23;;;16.40;99.90;;;;;;5010180;28;20018;-50
2023/08/13 01:41:52;;;;;;;26.17;14.93;;;16.40;99.90;;;;;;5010324;28;20025;-49
2023/08/13 01:44:17;;;;;;;29.65;13.70;;;16.40;99.90;;;;;;5009691;28;20041;-47
2023/08/13 01:46:43;;;;;;;22.13;13.68;;;16.40;99.90;;;;;;5010147;28;20477;-49
2023/08/13 01:49:09;;;;;;;19.13;12.55;;;16.40;99.90;;;;;;5011596;28;20044;-50
2023/08/13 01:51:34;;;;;;;27.83;15.18;;;16.30;99.90;;;;;;5013736;28;20022;-47
2023/08/13 01:54:00;;;;;;;24.15;14.15;;;16.30;99.90;;;;;;5013249;28;20388;-48
2023/08/13 01:56:25;;;;;;;20.10;12.75;;;16.30;99.90;;;;;;4987862;28;20481;-49
2023/08/13 01:58:51;;;;;;;31.50;15.90;;;16.30;99.90;;;;;;5013510;28;20045;-47
2023/08/13 02:01:16;;;;;;;33.67;16.88;;;16.30;99.90;;;;;;5013732;28;20026;-48
2023/08/13 02:03:42;;;;;;;30.90;16.50;;;16.30;99.90;;;;;;5013207;28;20381;-48
2023/08/13 02:06:07;;;;;;;35.33;16.80;;;16.30;99.90;;;;;;4995642;28;20440;-47
2023/08/13 02:08:33;;;;;;;48.55;20.67;;;16.30;99.90;;;;;;5013408;28;20216;-50
2023/08/13 02:10:58;;;;;;;39.08;19.98;;;16.30;99.90;;;;;;5013476;28;20025;-46
2023/08/13 02:13:24;;;;;;;41.65;19.50;;;16.30;99.90;;;;;;5012977;28;20458;-48
2023/08/13 02:15:50;;;;;;;41.83;20.98;;;16.30;99.90;;;;;;5013340;28;20049;-47
2023/08/13 02:18:15;;;;;;;38.28;20.02;;;16.30;99.90;;;;;;5013063;28;20064;-47
2023/08/13 02:20:41;;;;;;;45.58;21.45;;;16.30;99.90;;;;;;5013052;28;20469;-47
2023/08/13 02:23:06;;;;;;;41.00;20.40;;;16.30;99.90;;;;;;5013134;28;20018;-49
2023/08/13 02:25:32;;;;;;;43.47;20.55;;;16.30;99.90;;;;;;5012664;28;20026;-49
2023/08/13 02:27:57;;;;;;;38.25;21.42;;;16.40;99.90;;;;;;5013235;28;20026;-49
2023/08/13 02:30:23;;;;;;;48.20;22.27;;;16.30;99.90;;;;;;5013044;28;20109;-50
2023/08/13 02:32:49;;;;;;;39.40;21.25;;;16.30;99.90;;;;;;5012670;28;20056;-47
2023/08/13 02:35:14;;;;;;;41.85;21.08;;;16.30;99.90;;;;;;5012683;28;20090;-46
2023/08/13 02:37:40;;;;;;;45.08;20.88;;;16.40;99.90;;;;;;4995182;28;20654;-47
2023/08/13 02:40:06;;;;;;;37.85;20.58;;;16.30;99.90;;;;;;5012715;28;20033;-47
2023/08/13 02:42:32;;;;;;;38.40;19.73;;;16.30;99.90;;;;;;5012577;28;20032;-47
2023/08/13 02:44:58;;;;;;;42.40;21.15;;;16.30;99.90;;;;;;5012397;28;20036;-47
2023/08/13 02:47:24;;;;;;;34.63;20.15;;;16.30;99.90;;;;;;5012481;28;20552;-46
2023/08/13 02:49:50;;;;;;;36.55;19.13;;;16.30;99.90;;;;;;4994966;28;20566;-50
2023/08/13 02:52:16;;;;;;;38.33;19.08;;;16.30;99.90;;;;;;5012514;28;20025;-45
2023/08/13 02:54:42;;;;;;;32.45;18.45;;;16.30;99.90;;;;;;5012259;28;20504;-46
2023/08/13 02:57:07;;;;;;;33.92;17.52;;;16.30;99.90;;;;;;5012640;28;20034;-45
2023/08/13 02:59:33;;;;;;;28.63;16.38;;;16.30;99.90;;;;;;5012088;28;20223;-46
2023/08/13 03:01:58;;;;;;;32.20;16.60;;;16.30;99.90;;;;;;5011720;28;20064;-45
2023/08/13 03:04:24;;;;;;;26.35;15.68;;;16.30;99.90;;;;;;5011763;28;20049;-46
2023/08/13 03:06:49;;;;;;;27.02;15.15;;;16.30;99.90;;;;;;4994662;28;20528;-46
2023/08/13 03:09:22;;;;;;;23.30;14.63;;;16.30;99.90;;;;;;5012233;28;20022;-46
2023/08/13 03:11:48;;;;;;;26.45;14.82;;;16.30;99.90;;;;;;5012208;28;20022;-44
2023/08/13 03:14:14;;;;;;;23.40;13.32;;;16.30;99.90;;;;;;5011409;28;20084;-48
2023/08/13 03:16:40;;;;;;;19.45;12.98;;;16.30;99.90;;;;;;5011612;28;20022;-45
2023/08/13 03:19:06;;;;;;;22.83;12.85;;;16.30;99.90;;;;;;5011978;28;20058;-47
2023/08/13 03:21:31;;;;;;;21.73;12.07;;;16.30;99.90;;;;;;5011995;28;20022;-46
2023/08/13 03:23:57;;;;;;;20.73;11.48;;;16.30;99.90;;;;;;5011816;28;20030;-47
2023/08/13 03:26:22;;;;;;;20.40;10.88;;;16.30;99.90;;;;;;4993991;28;20160;-50
2023/08/13 03:28:48;;;;;;;14.70;10.70;;;16.30;99.90;;;;;;5011814;28;20065;-55
2023/08/13 03:31:13;;;;;;;21.08;11.18;;;16.30;99.90;;;;;;4994142;28;20037;-47
2023/08/13 03:33:39;;;;;;;19.38;9.88;;;16.30;99.90;;;;;;5011730;28;20021;-46
2023/08/13 03:36:04;;;;;;;17.27;10.48;;;16.30;99.90;;;;;;5011586;28;20030;-46
2023/08/13 03:38:30;;;;;;;21.15;9.57;;;16.30;99.90;;;;;;5009635;28;20489;-49
2023/08/13 03:40:57;;;;;;;19.45;10.60;;;16.30;99.90;;;;;;5011536;28;20052;-46
2023/08/13 03:43:22;;;;;;;17.05;9.63;;;16.30;99.90;;;;;;5011246;28;20022;-46
2023/08/13 03:45:48;;;;;;;15.15;9.60;;;16.30;99.90;;;;;;5011200;28;20084;-46
2023/08/13 03:48:13;;;;;;;15.82;9.85;;;16.30;99.90;;;;;;5011445;28;20033;-47
2023/08/13 03:50:43;;;;;;;20.67;10.75;;;16.30;99.90;;;;;;4993875;28;20014;-49
2023/08/13 03:53:09;;;;;;;14.10;8.95;;;16.30;99.90;;;;;;5011524;28;20018;-47
2023/08/13 03:55:36;;;;;;;14.07;8.90;;;16.30;99.90;;;;;;5011109;28;20401;-46
2023/08/13 03:58:02;;;;;;;16.08;8.70;;;16.30;99.90;;;;;;4993934;28;20028;-46
2023/08/13 04:00:28;;;;;;;12.93;8.63;;;16.30;99.90;;;;;;5011617;28;20094;-46
2023/08/13 04:02:53;;;;;;;15.57;9.52;;;16.30;99.90;;;;;;5011116;28;20025;-47
2023/08/13 04:05:19;;;;;;;12.50;8.68;;;16.30;99.90;;;;;;5010591;28;20388;-46
2023/08/13 04:07:44;;;;;;;14.07;8.20;;;16.30;99.90;;;;;;4993498;28;20053;-46
2023/08/13 04:10:10;;;;;;;14.00;8.52;;;16.30;99.90;;;;;;5011079;28;20392;-47
2023/08/13 04:12:35;;;;;;;14.40;8.38;;;16.30;99.90;;;;;;4993049;28;20021;-45
2023/08/13 04:15:03;;;;;;;14.48;7.97;;;16.30;99.90;;;;;;5010718;28;20362;-46
2023/08/13 04:17:28;;;;;;;11.48;8.07;;;16.30;99.90;;;;;;5010926;28;20378;-46
2023/08/13 04:19:54;;;;;;;12.05;8.05;;;16.30;99.90;;;;;;5010909;28;20100;-49
2023/08/13 04:22:19;;;;;;;13.95;7.53;;;16.30;99.90;;;;;;5010685;28;20396;-46
2023/08/13 04:24:51;;;;;;;10.82;7.53;;;16.40;99.90;;;;;;5010371;28;20028;-46
2023/08/13 04:27:17;;;;;;;13.60;8.52;;;16.30;99.90;;;;;;5010593;28;20018;-46
2023/08/13 04:29:43;;;;;;;10.48;7.70;;;16.40;99.90;;;;;;4993071;28;20461;-49
2023/08/13 04:32:09;;;;;;;15.10;8.77;;;16.40;99.90;;;;;;5010778;28;20041;-46
2023/08/13 04:34:34;;;;;;;11.75;7.28;;;16.40;99.90;;;;;;5010524;28;20029;-45
2023/08/13 04:37:00;;;;;;;19.55;8.15;;;16.30;99.90;;;;;;5010689;28;20058;-47
2023/08/13 04:39:25;;;;;;;11.75;7.75;;;16.30;99.90;;;;;;5010489;28;20033;-48
2023/08/13 04:41:53;;;;;;;10.20;7.55;;;16.40;99.90;;;;;;5010468;28;20018;-46
2023/08/13 04:44:19;;;;;;;9.52;7.20;;;16.40;99.90;;;;;;5009887;28;20477;-45
2023/08/13 04:46:44;;;;;;;18.67;8.55;;;16.40;99.90;;;;;;4992959;28;20022;-46
2023/08/13 04:49:10;;;;;;;13.30;7.60;;;16.50;99.90;;;;;;5010708;28;20018;-48
2023/08/13 04:51:35;;;;;;;10.85;6.88;;;16.50;99.90;;;;;;5010832;28;20076;-46
2023/08/13 04:54:01;;;;;;;12.35;7.13;;;16.60;99.90;;;;;;5010450;28;20048;-48
2023/08/13 04:56:26;;;;;;;15.57;6.47;;;16.60;99.90;;;;;;5010602;28;20528;-50
2023/08/13 04:58:52;;;;;;;8.60;6.10;;;16.70;99.90;;;;;;5010676;28;20100;-48
2023/08/13 05:01:17;;;;;;;11.45;6.18;;;16.70;99.90;;;;;;5010405;28;20869;-47
2023/08/13 05:03:44;;;;;;;14.27;6.65;;;16.80;99.90;;;;;;5010196;28;20481;-49
2023/08/13 05:06:10;;;;;;;11.82;6.80;;;16.90;99.90;;;;;;5010247;28;20085;-49
2023/08/13 05:08:36;;;;;;;12.93;6.75;;;17.00;99.90;;;;;;5010454;28;20538;-47
2023/08/13 05:11:02;;;;;;;9.05;6.00;;;17.10;99.90;;;;;;5010217;28;20477;-47
2023/08/13 05:13:27;;;;;;;9.95;6.90;;;17.10;99.90;;;;;;5009915;28;20091;-48
2023/08/13 05:15:53;;;;;;;12.73;5.75;;;17.20;99.90;;;;;;5010107;28;20028;-46
2023/08/13 05:18:18;;;;;;;8.23;6.03;;;17.20;99.90;;;;;;5010217;28;20038;-49
2023/08/13 05:20:46;;;;;;;15.02;6.75;;;17.30;99.90;;;;;;5010385;28;20033;-47
2023/08/13 05:23:12;;;;;;;9.57;6.20;;;17.40;99.90;;;;;;5010490;28;20101;-46
2023/08/13 05:25:40;;;;;;;9.50;5.68;;;17.40;99.90;;;;;;4996087;28;20454;-47
2023/08/13 05:28:07;;;;;;;11.30;6.50;;;17.50;99.90;;;;;;4996701;28;20049;-47
2023/08/13 05:30:33;;;;;;;9.90;6.05;;;17.50;99.90;;;;;;5014123;28;20076;-47
2023/08/13 05:33:00;;;;;;;12.05;6.07;;;17.60;99.90;;;;;;4996346;28;20369;-47
2023/08/13 05:35:25;;;;;;;10.50;5.97;;;17.60;99.90;;;;;;5013573;28;20076;-47
2023/08/13 05:37:51;;;;;;;12.90;6.25;;;17.60;99.90;;;;;;5014512;28;20472;-46
2023/08/13 05:40:16;;;;;;;13.18;6.88;;;17.70;99.90;;;;;;5013760;28;20053;-46
2023/08/13 05:42:42;;;;;;;7.20;5.75;;;17.70;99.90;;;;;;5013972;28;20060;-46
2023/08/13 05:45:08;;;;;;;11.18;5.57;;;17.70;99.90;;;;;;5013413;28;20026;-47
2023/08/13 05:47:33;;;;;;;9.23;6.25;;;17.70;99.90;;;;;;4996187;28;20101;-47
2023/08/13 05:49:59;;;;;;;9.52;5.68;;;17.70;99.90;;;;;;5014072;28;20425;-48
2023/08/13 05:52:25;;;;;;;9.27;5.78;;;17.70;99.90;;;;;;5013951;28;20036;-45
2023/08/13 05:54:50;;;;;;;8.80;6.07;;;17.70;99.90;;;;;;5013668;28;20488;-45
2023/08/13 05:57:16;;;;;;;8.32;6.55;;;17.70;99.90;;;;;;5013511;28;20105;-45
2023/08/13 05:59:44;;;;;;;7.72;5.22;;;17.80;99.90;;;;;;5013589;28;20029;-47
2023/08/13 06:02:10;;;;;;;6.55;4.82;;;17.80;99.90;;;;;;5013461;28;20030;-44
2023/08/13 06:04:35;;;;;;;12.73;5.45;;;17.90;99.90;;;;;;5013012;28;20068;-45
2023/08/13 06:07:02;;;;;;;11.85;5.93;;;17.90;99.90;;;;;;5013490;28;20461;-45
2023/08/13 06:09:28;;;;;;;15.35;5.25;;;17.90;99.90;;;;;;4995679;28;20022;-45
2023/08/13 06:11:54;;;;;;;9.93;5.53;;;18.00;99.90;;;;;;5013689;28;20359;-46
2023/08/13 06:14:19;;;;;;;6.90;5.35;;;18.00;99.90;;;;;;5012818;28;20033;-45
2023/08/13 06:16:45;;;;;;;12.43;5.72;;;18.10;99.90;;;;;;5013402;28;20032;-45
2023/08/13 06:19:10;;;;;;;7.20;5.07;;;18.10;99.90;;;;;;4995622;28;20104;-46
2023/08/13 06:21:36;;;;;;;8.15;5.40;;;18.10;99.90;;;;;;5013034;28;20030;-46
2023/08/13 06:24:01;;;;;;;7.72;5.63;;;18.10;99.90;;;;;;5012749;28;20054;-46
2023/08/13 06:26:27;;;;;;;11.82;5.55;;;18.20;99.90;;;;;;4995283;28;20022;-45
2023/08/13 06:28:52;;;;;;;10.23;5.60;;;18.30;99.90;;;;;;5013067;28;20018;-46
2023/08/13 06:31:18;;;;;;;11.55;5.78;;;18.30;99.90;;;;;;5012678;28;20026;-46
2023/08/13 06:33:44;;;;;;;5.57;4.70;;;18.30;99.90;;;;;;5012717;28;20056;-45
2023/08/13 06:36:10;;;;;;;13.98;5.60;;;18.50;99.90;;;;;;5012623;28;20089;-48
2023/08/13 06:38:37;;;;;;;7.53;5.18;;;18.60;99.90;;;;;;5012672;28;20052;-49
2023/08/13 06:41:03;;;;;;;7.95;4.90;;;18.60;99.90;;;;;;5012691;28;20053;-44
2023/08/13 06:43:29;;;;;;;7.28;4.60;;;18.80;99.90;;;;;;5012293;28;20109;-48
2023/08/13 06:45:55;;;;;;;7.90;4.60;;;18.90;99.90;;;;;;5012496;28;20021;-45
2023/08/13 06:48:20;;;;;;;7.95;4.97;;;19.00;99.90;;;;;;5012564;28;20495;-45
2023/08/13 06:50:48;;;;;;;11.23;5.00;;;19.10;99.90;;;;;;5012641;28;20029;-47
2023/08/13 06:53:14;;;;;;;11.15;4.88;;;19.10;99.90;;;;;;5012519;28;20038;-46
2023/08/13 06:55:39;;;;;;;6.60;4.35;;;19.30;99.90;;;;;;5012220;28;20050;-47
2023/08/13 06:58:05;;;;;;;8.68;4.85;;;19.40;99.90;;;;;;5012918;28;20041;-46
2023/08/13 07:00:32;;;;;;;8.65;4.18;;;19.50;99.90;;;;;;5012572;28;20026;-46
2023/08/13 07:02:58;;;;;;;7.15;4.28;;;19.50;99.90;;;;;;4994593;28;20461;-47
2023/08/13 07:05:24;;;;;;;6.88;4.22;;;19.70;99.90;;;;;;4994279;28;20105;-46
2023/08/13 07:07:50;;;;;;;8.55;4.32;;;19.80;99.90;;;;;;4994560;28;20075;-45
2023/08/13 07:10:15;;;;;;;8.32;4.72;;;19.90;99.90;;;;;;5012276;28;20072;-48
2023/08/13 07:12:41;;;;;;;5.93;3.78;;;20.00;99.90;;;;;;5004098;28;20373;-46
2023/08/13 07:15:07;;;;;;;9.57;4.18;;;20.10;99.90;;;;;;5011695;28;20469;-46
2023/08/13 07:17:32;;;;;;;10.77;4.18;;;20.20;99.90;;;;;;5011990;28;20026;-46
2023/08/13 07:19:58;;;;;;;11.43;3.70;;;20.20;99.90;;;;;;5012060;28;20038;-47
2023/08/13 07:22:23;;;;;;;12.60;4.50;;;20.20;99.90;;;;;;5011819;28;20030;-46
2023/08/13 07:24:49;;;;;;;6.72;3.47;;;20.20;99.90;;;;;;5011791;28;20384;-46
2023/08/13 07:27:14;;;;;;;5.78;3.95;;;20.20;99.90;;;;;;5012028;28;20018;-46
2023/08/13 07:29:40;;;;;;;6.07;3.50;;;20.40;99.90;;;;;;5011947;28;20021;-46
2023/08/13 07:32:06;;;;;;;6.40;3.80;;;20.30;99.90;;;;;;5011675;28;20025;-46
2023/08/13 07:34:31;;;;;;;8.60;4.13;;;20.30;99.90;;;;;;5011271;28;20023;-46
2023/08/13 07:36:57;;;;;;;6.57;4.13;;;20.30;99.90;;;;;;5011670;28;20046;-46
2023/08/13 07:39:23;;;;;;;10.10;4.18;;;20.40;99.90;;;;;;5011975;28;20096;-47
2023/08/13 07:41:49;;;;;;;11.38;3.83;;;20.40;99.90;;;;;;5011738;28;20073;-46
2023/08/13 07:44:16;;;;;;;12.82;4.05;;;20.60;99.90;;;;;;5010998;28;20432;-46
2023/08/13 07:46:41;;;;;;;11.85;4.38;;;20.60;99.90;;;;;;5010945;28;20024;-47
2023/08/13 07:49:07;;;;;;;5.88;3.92;;;20.80;99.90;;;;;;4994052;28;20291;-48
2023/08/13 07:51:33;;;;;;;6.65;3.80;;;20.80;99.90;;;;;;5011398;28;20092;-46
2023/08/13 07:53:59;;;;;;;4.25;3.45;;;20.90;99.90;;;;;;4993508;28;20021;-47
2023/08/13 07:56:24;;;;;;;5.20;3.50;;;21.00;99.90;;;;;;5011216;28;20022;-46
2023/08/13 07:58:50;;;;;;;16.85;3.80;;;21.20;99.90;;;;;;4993784;28;20076;-47
2023/08/13 08:01:17;;;;;;;11.65;4.03;;;21.40;99.90;;;;;;4993574;28;20060;-48
2023/08/13 08:03:42;;;;;;;4.38;3.17;;;21.50;99.90;;;;;;5011034;28;20018;-47
2023/08/13 08:06:08;;;;;;;14.00;4.63;;;21.70;99.90;;;;;;5011389;28;20034;-46
2023/08/13 08:08:33;;;;;;;5.55;3.15;;;21.70;99.90;;;;;;5011139;28;20393;-47
2023/08/13 08:10:59;;;;;;;6.28;3.50;;;22.00;99.90;;;;;;5011156;28;20022;-47
2023/08/13 08:13:24;;;;;;;7.32;3.53;;;22.20;99.90;;;;;;5010864;28;20022;-46
2023/08/13 08:15:50;;;;;;;5.22;3.10;;;22.30;99.90;;;;;;5010653;28;20096;-48
2023/08/13 08:18:15;;;;;;;6.30;2.70;;;22.50;99.90;;;;;;5011092;28;20022;-47
2023/08/13 08:20:41;;;;;;;8.27;3.30;;;22.90;99.90;;;;;;5010845;28;20517;-47
2023/08/13 08:23:07;;;;;;;6.53;3.95;;;23.20;99.90;;;;;;4993196;28;20048;-48
2023/08/13 08:25:32;;;;;;;5.88;3.22;;;23.60;99.90;;;;;;5010347;28;20053;-48
2023/08/13 08:27:58;;;;;;;6.97;3.05;;;24.30;99.90;;;;;;5010878;28;20106;-47
2023/08/13 08:30:24;;;;;;;9.70;3.00;;;24.90;99.90;;;;;;5010789;28;20033;-49
2023/08/13 08:32:50;;;;;;;4.95;2.83;;;25.40;99.90;;;;;;4993042;28;20496;-50
2023/08/13 08:35:15;;;;;;;6.57;2.60;;;25.60;99.90;;;;;;5010459;28;20047;-47
2023/08/13 08:37:41;;;;;;;11.52;2.75;;;26.00;99.90;;;;;;5011007;28;20026;-49
2023/08/13 08:40:07;;;;;;;5.63;2.40;;;26.40;99.30;;;;;;5010789;28;20080;-47
2023/08/13 08:42:33;;;;;;;10.57;3.30;;;26.90;98.40;;;;;;5010648;28;20032;-47
2023/08/13 08:45:02;;;;;;;5.18;2.35;;;27.90;94.40;;;;;;5010429;28;20037;-48
2023/08/13 08:47:28;;;;;;;7.47;2.88;;;28.70;95.80;;;;;;5010964;28;20018;-50
2023/08/13 08:49:54;;;;;;;5.63;2.80;;;29.70;91.70;;;;;;5010806;28;20100;-50
2023/08/13 08:52:20;;;;;;;3.15;1.63;;;30.50;92.70;;;;;;5010671;28;20566;-50
2023/08/13 08:54:47;;;;;;;6.45;2.50;;;30.80;90.90;;;;;;5002340;28;20083;-50
2023/08/13 08:57:13;;;;;;;4.50;2.28;;;30.80;87.60;;;;;;5010596;28;20033;-47
2023/08/13 08:59:38;;;;;;;6.72;2.47;;;30.10;83.60;;;;;;5009947;28;20551;-48
2023/08/13 09:02:05;;;;;;;4.20;1.92;;;29.90;84.10;;;;;;5011031;28;20030;-50
2023/08/13 09:04:30;;;;;;;4.43;2.30;;;30.20;84.70;;;;;;4992729;28;20504;-49
2023/08/13 09:07:01;;;;;;;4.00;1.70;;;31.10;83.40;;;;;;5010714;28;20026;-48
2023/08/13 09:09:28;;;;;;;6.80;2.45;;;31.70;79.50;;;;;;5010431;28;20022;-48
2023/08/13 09:11:55;;;;;;;7.30;2.47;;;31.80;77.70;;;;;;5010529;28;20089;-47
2023/08/13 09:14:22;;;;;;;3.40;1.88;;;31.80;75.90;;;;;;5009872;28;20112;-49
2023/08/13 09:16:49;;;;;;;6.80;2.40;;;31.50;79.00;;;;;;5002252;28;20022;-46
2023/08/13 09:19:16;;;;;;;5.00;2.30;;;30.70;76.90;;;;;;5010200;28;20433;-49
2023/08/13 09:21:56;;;;;;;6.75;2.33;;;30.80;81.30;;;;;;5010121;28;20381;-49
2023/08/13 09:24:39;;;;;;;8.15;2.70;;;31.40;81.90;;;;;;4992324;28;20064;-48
2023/08/13 09:27:06;;;;;;;6.25;2.25;;;32.40;76.30;;;;;;5010239;28;20037;-49
2023/08/13 09:29:32;;;;;;;5.55;2.00;;;32.30;77.30;;;;;;5010044;28;20026;-49
2023/08/13 09:31:59;;;;;;;5.78;2.20;;;32.90;75.30;;;;;;5010180;28;20535;-49
2023/08/13 09:34:26;;;;;;;5.28;2.13;;;32.90;73.70;;;;;;4992000;28;20120;-49
2023/08/13 09:36:53;;;;;;;8.80;2.63;;;32.90;72.50;;;;;;5010068;28;20022;-50
2023/08/13 09:39:20;;;;;;;6.78;1.98;;;34.00;71.20;;;;;;5008005;28;20401;-50
2023/08/13 09:41:47;;;;;;;4.93;2.33;;;34.50;71.30;;;;;;5010317;28;20116;-48
2023/08/13 09:44:17;;;;;;;4.85;2.08;;;34.80;73.20;;;;;;5009497;28;20543;-48
2023/08/13 09:46:48;;;;;;;7.22;2.78;;;35.00;71.60;;;;;;5010458;28;20036;-49
2023/08/13 09:49:15;;;;;;;5.07;2.30;;;34.90;67.70;;;;;;5010715;28;20089;-49
2023/08/13 09:51:46;;;;;;;4.20;1.73;;;35.70;68.60;;;;;;5010109;28;20440;-49
2023/08/13 09:54:22;;;;;;;5.85;2.20;;;35.80;67.30;;;;;;5009459;28;20030;-47
2023/08/13 09:56:55;;;;;;;6.15;2.40;;;35.20;66.60;;;;;;5009882;28;20032;-49
2023/08/13 09:59:21;;;;;;;5.13;2.05;;;34.30;67.10;;;;;;5010116;28;20432;-49
2023/08/13 10:01:46;;;;;;;5.47;2.20;;;33.50;71.10;;;;;;4991997;28;20080;-50
2023/08/13 10:04:12;;;;;;;5.47;1.95;;;33.60;70.70;;;;;;5009298;28;20072;-48
2023/08/13 10:06:38;;;;;;;4.95;1.80;;;34.20;70.60;;;;;;5009701;28;20036;-48
2023/08/13 10:09:04;;;;;;;5.95;2.03;;;33.90;70.30;;;;;;5009885;28;20018;-47
2023/08/13 10:11:30;;;;;;;4.13;2.20;;;32.70;71.40;;;;;;5013322;28;20033;-48
2023/08/13 10:13:55;;;;;;;5.97;2.53;;;32.70;72.40;;;;;;5013632;28;20048;-49
2023/08/13 10:16:22;;;;;;;5.07;2.40;;;33.00;72.00;;;;;;5013056;28;20393;-48
2023/08/13 10:18:47;;;;;;;5.03;2.40;;;33.80;71.60;;;;;;4995514;28;20076;-50
2023/08/13 10:21:14;;;;;;;4.53;2.05;;;34.40;70.00;;;;;;5013009;28;20552;-49
2023/08/13 10:23:40;;;;;;;5.68;1.88;;;34.50;68.00;;;;;;5012704;28;20029;-49
2023/08/13 10:26:07;;;;;;;5.22;2.15;;;34.60;67.60;;;;;;4995692;28;20358;-50
2023/08/13 10:28:33;;;;;;;4.47;2.40;;;33.80;69.10;;;;;;5013006;28;20017;-48
2023/08/13 10:31:21;;;;;;;6.25;2.67;;;32.70;69.60;;;;;;5013187;28;20389;-49
2023/08/13 10:33:46;;;;;;;4.38;2.50;;;31.60;73.00;;;;;;5012772;28;20014;-48
2023/08/13 10:36:12;;;;;;;6.68;2.50;;;30.70;72.90;;;;;;4995025;28;20014;-48
2023/08/13 10:38:40;;;;;;;6.75;2.70;;;29.30;76.90;;;;;;5012815;28;20452;-48
2023/08/13 10:41:07;;;;;;;5.32;2.83;;;28.80;80.40;;;;;;4995091;28;20029;-48
2023/08/13 10:43:35;;;;;;;5.47;2.45;;;28.60;80.90;;;;;;5012314;28;20026;-48
2023/08/13 10:46:05;;;;;;;7.20;2.90;;;29.60;79.20;;;;;;5012473;28;20519;-50
2023/08/13 10:48:30;;;;;;;7.15;3.25;;;31.10;78.90;;;;;;5012542;28;20439;-49
2023/08/13 10:50:58;;;;;;;4.90;2.20;;;32.20;76.80;;;;;;5012778;28;20021;-50
2023/08/13 10:53:26;;;;;;;5.28;2.47;;;32.90;75.70;;;;;;5012483;28;20022;-48
2023/08/13 10:55:54;;;;;;;4.25;2.10;;;33.70;73.90;;;;;;5012377;28;20547;-47
2023/08/13 10:58:30;;;;;;;4.15;2.50;;;33.90;71.60;;;;;;5012451;28;20026;-50
2023/08/13 11:01:09;;;;;;;4.40;2.50;;;33.00;69.90;;;;;;5012369;28;20022;-50
2023/08/13 11:03:41;;;;;;;;;;;33.10;71.30;;;;;;5012385;28;20022;-47
2023/08/13 11:06:07;;;;;;;7.47;2.40;;;32.90;69.90;;;;;;5012003;28;19999;-47
2023/08/13 11:08:33;;;;;;;4.63;2.58;;;32.60;70.50;;;;;;4994703;28;20046;-48
2023/08/13 11:11:00;;;;;;;6.80;2.63;;;33.40;69.70;;;;;;5012364;28;20105;-48
2023/08/13 11:13:25;;;;;;;7.97;2.70;;;33.90;68.20;;;;;;5011964;28;20076;-49
2023/08/13 11:15:52;;;;;;;8.43;2.35;;;33.30;68.60;;;;;;5011939;28;20026;-47
2023/08/13 11:18:19;;;;;;;4.13;2.00;;;32.80;69.00;;;;;;4994449;28;20037;-51
2023/08/13 11:20:46;;;;;;;8.63;3.08;;;32.30;72.20;;;;;;5011202;28;20022;-47
2023/08/13 11:23:13;;;;;;;6.53;2.70;;;32.10;71.20;;;;;;5011538;28;20534;-48
2023/08/13 11:25:40;;;;;;;6.88;2.72;;;31.60;71.60;;;;;;4993732;28;20033;-48
2023/08/13 11:28:06;;;;;;;4.57;2.38;;;31.20;74.10;;;;;;4994365;28;20028;-49
2023/08/13 11:30:31;;;;;;;8.93;3.58;;;32.00;72.30;;;;;;5011941;28;20030;-47
2023/08/13 11:32:57;;;;;;;4.82;3.10;;;32.30;70.10;;;;;;5011575;28;20026;-49
2023/08/13 11:35:23;;;;;;;6.57;2.58;;;32.50;74.30;;;;;;5011199;28;20031;-49
2023/08/13 11:37:49;;;;;;;7.20;2.47;;;32.00;68.00;;;;;;5011584;28;20038;-48
2023/08/13 11:40:16;;;;;;;4.82;2.67;;;31.60;68.40;;;;;;5019747;28;20025;-50
2023/08/13 11:43:11;;;;;;;6.13;2.30;;;31.30;69.30;;;;;;5011289;28;20022;-50
2023/08/13 11:45:38;;;;;;;5.63;2.30;;;31.30;70.60;;;;;;4994252;28;20080;-48
2023/08/13 11:48:11;;;;;;;9.88;3.00;;;31.60;72.60;;;;;;4993890;28;20022;-50
2023/08/13 11:50:39;;;;;;;5.57;2.83;;;31.90;70.90;;;;;;4994030;28;20033;-49
2023/08/13 11:53:14;;;;;;;8.57;2.67;;;32.00;72.30;;;;;;5011189;28;20018;-49
2023/08/13 11:55:43;;;;;;;5.72;2.38;;;32.30;71.00;;;;;;4993119;28;20025;-47
2023/08/13 11:58:08;;;;;;;9.60;2.70;;;32.40;69.00;;;;;;5011410;28;20022;-47
2023/08/13 12:00:35;;;;;;;7.30;2.47;;;31.80;68.80;;;;;;4993557;28;20113;-49
2023/08/13 12:03:01;;;;;;;7.28;2.55;;;30.70;69.40;;;;;;5011078;28;20048;-46
2023/08/13 12:05:31;;;;;;;5.72;2.35;;;30.50;72.60;;;;;;5010576;28;20505;-47
2023/08/13 12:07:58;;;;;;;5.38;2.30;;;30.30;70.20;;;;;;5011193;28;20014;-48
2023/08/13 12:10:24;;;;;;;7.53;2.40;;;29.90;72.70;;;;;;5011094;28;20093;-46
2023/08/13 12:12:50;;;;;;;7.65;2.30;;;29.20;72.40;;;;;;5010853;28;20045;-46
2023/08/13 12:15:17;;;;;;;7.90;2.80;;;28.90;74.20;;;;;;5010713;28;20026;-46
2023/08/13 12:17:43;;;;;;;5.75;2.22;;;28.60;73.10;;;;;;5011183;28;20095;-47
2023/08/13 12:20:12;;;;;;;9.60;2.80;;;28.20;75.80;;;;;;5011107;28;20026;-49
2023/08/13 12:22:37;;;;;;;4.53;2.50;;;28.10;77.40;;;;;;5010811;28;20604;-46
2023/08/13 12:25:03;;;;;;;10.98;3.38;;;28.30;75.70;;;;;;5010616;28;20045;-49
2023/08/13 12:27:29;;;;;;;7.95;2.58;;;28.40;76.20;;;;;;4993132;28;20026;-49
2023/08/13 12:29:54;;;;;;;6.85;2.97;;;28.50;75.90;;;;;;4993194;28;20439;-46
2023/08/13 12:32:20;;;;;;;4.50;2.15;;;28.40;74.70;;;;;;5010378;28;20120;-47
2023/08/13 12:34:45;;;;;;;3.55;2.40;;;28.80;79.30;;;;;;5010101;28;20026;-47
2023/08/13 12:37:11;;;;;;;6.40;2.70;;;29.10;78.30;;;;;;5010743;28;20477;-46